Airfield :
LOGIN :

Register | Disclaimer

   EN    FR    IT 

 










Legend :    VFR   Marginal VFR   IFR   Intensive IFR   Very Intensive IFR
Visi :
Ceiling :
>= 8 km
>= 3000ft
5 to 8 km
1000 to 3000 ft
1500m to 5 km
500 to 1000 ft
800 to 1500m
200 to 500 ft
< 800m
< 200 ft
Symbols :   Thunderstorms  Fog  Heavy snow  Heavy precipitations  Wind > 20 kt
SIGMETs :     Misc.  Thunderstorms  Icing  Turbulence  Mountain Waves  Volcanic Ashes






- Airport Elevation : 24 ft
- IATA code : FAO


LPFR - Faro

CURRENT METAR :
  • 111800Z 25007KT CAVOK 27/18 Q1011

EXPIRED METARs :
  • 111730Z 27010KT CAVOK 27/18 Q1011
  • 111700Z 26013KT CAVOK 27/18 Q1011
  • 111630Z 25012KT CAVOK 27/18 Q1011
  • 111600Z 24007KT 220V280 CAVOK 28/18 Q1011
  • 111530Z 24008KT CAVOK 27/18 Q1012
  • 111500Z 22007KT 200V270 CAVOK 27/18 Q1012

TAF TAF LPFR
Valid from the 11 at 18:00 until the 12 at 18:00 UTC


111700Z 1118/1218 25012KT CAVOK
BECMG 1118/1120 29007KT
BECMG 1123/1202 VRB02KT
BECMG 1210/1212 17007KT
BECMG 1215/1217 25010KT



MET'MAP, your aeronautical weather chart ! - Copyright ORBIFLY December 2007 - Disclaimer

ORBIFLY MET'MAP TEAM :

Programming & Development : Alexandra Zaïnal
Concept & original design : Baudouin d'Aumeries
Assistance for programming : Marc-Olivier Méhu
Technical & hardware support : Manuel Goepfert

Contact : metmap@orbifly.com




SOURCES & CREDITS :

   NOAA